createdAt,value
2023-04-07T00:01:53.592Z,6.95
2023-04-07T00:04:39.740Z,10.80
2023-04-07T00:07:26.290Z,5.28
2023-04-07T00:10:12.527Z,6.57
2023-04-07T00:12:58.625Z,7.70
2023-04-07T00:15:44.662Z,7.10
2023-04-07T00:18:30.442Z,9.48
2023-04-07T00:21:16.599Z,6.50
2023-04-07T00:24:03.000Z,7.35
2023-04-07T00:26:48.888Z,8.75
2023-04-07T00:29:34.760Z,6.70
2023-04-07T00:32:20.923Z,7.95
2023-04-07T00:35:07.356Z,5.32
2023-04-07T00:37:53.330Z,9.10
2023-04-07T00:40:39.293Z,9.05
2023-04-07T00:43:25.745Z,6.88
2023-04-07T00:46:12.823Z,5.97
2023-04-07T00:48:58.883Z,7.80
2023-04-07T00:51:47.073Z,8.02
2023-04-07T00:54:33.410Z,6.47
2023-04-07T00:57:19.340Z,5.78
2023-04-07T01:00:06.855Z,7.88
2023-04-07T01:03:01.799Z,6.57
2023-04-07T01:06:06.744Z,6.15
2023-04-07T01:09:02.313Z,5.60
2023-04-07T01:11:58.744Z,6.68
2023-04-07T01:14:54.284Z,8.15
2023-04-07T01:18:01.638Z,8.45
2023-04-07T01:20:51.413Z,7.75
2023-04-07T01:23:57.133Z,7.47
2023-04-07T01:26:44.087Z,6.53
2023-04-07T01:29:41.561Z,5.35
2023-04-07T01:32:29.058Z,5.75
2023-04-07T01:35:16.523Z,7.05
2023-04-07T01:38:05.365Z,6.72
2023-04-07T01:40:52.513Z,7.00
2023-04-07T01:43:41.766Z,4.63
2023-04-07T01:46:28.564Z,6.05
2023-04-07T01:49:15.660Z,9.75
2023-04-07T01:52:02.283Z,6.78
2023-04-07T01:54:49.832Z,7.85
2023-04-07T01:57:36.117Z,6.15
2023-04-07T02:00:29.155Z,5.78
2023-04-07T02:03:23.755Z,5.82
2023-04-07T02:06:15.440Z,7.05
2023-04-07T02:09:07.892Z,5.03
2023-04-07T02:11:58.289Z,4.95
2023-04-07T02:14:45.736Z,4.90
2023-04-07T02:17:38.094Z,5.35
2023-04-07T02:20:25.338Z,6.82
2023-04-07T02:23:12.751Z,6.18
2023-04-07T02:25:59.232Z,4.03
2023-04-07T02:28:45.192Z,6.13
2023-04-07T02:31:31.492Z,6.22
2023-04-07T02:34:20.587Z,5.07
2023-04-07T02:37:06.684Z,4.15
2023-04-07T02:39:53.568Z,6.57
2023-04-07T02:42:40.102Z,4.63
2023-04-07T02:45:26.512Z,4.65
2023-04-07T02:48:12.315Z,4.40
2023-04-07T02:50:59.146Z,5.43
2023-04-07T02:53:45.282Z,4.20
2023-04-07T02:56:32.726Z,6.18
2023-04-07T02:59:19.283Z,7.57
2023-04-07T03:02:06.018Z,5.55
2023-04-07T03:04:53.452Z,4.82
2023-04-07T03:07:44.030Z,4.85
2023-04-07T03:10:30.386Z,4.43
2023-04-07T03:13:19.104Z,3.88
2023-04-07T03:16:05.175Z,4.93
2023-04-07T03:18:59.211Z,4.53
2023-04-07T03:21:46.514Z,4.63
2023-04-07T03:24:32.759Z,7.07
2023-04-07T03:27:20.294Z,4.80
2023-04-07T03:30:08.734Z,5.32
2023-04-07T03:32:54.732Z,5.40
2023-04-07T03:35:42.355Z,4.07
2023-04-07T03:38:30.633Z,4.65
2023-04-07T03:41:21.142Z,4.75
2023-04-07T03:44:07.063Z,4.60
2023-04-07T03:46:56.250Z,5.32
2023-04-07T03:49:43.775Z,4.95
2023-04-07T03:52:30.274Z,4.43
2023-04-07T03:55:23.278Z,4.70
2023-04-07T03:58:16.905Z,4.75
2023-04-07T04:01:06.070Z,4.80
2023-04-07T04:03:53.238Z,4.10
2023-04-07T04:06:51.208Z,4.50
2023-04-07T04:09:43.363Z,5.72
2023-04-07T04:12:31.049Z,4.82
2023-04-07T04:15:25.341Z,4.78
2023-04-07T04:18:11.807Z,4.78
2023-04-07T04:20:58.678Z,4.00
2023-04-07T04:23:45.993Z,4.88
2023-04-07T04:26:32.511Z,4.90
2023-04-07T04:29:25.504Z,4.18
2023-04-07T04:32:13.598Z,4.82
2023-04-07T04:35:02.230Z,7.95
2023-04-07T04:37:51.502Z,5.95
2023-04-07T04:40:38.086Z,5.28
2023-04-07T04:43:25.338Z,6.18
2023-04-07T04:46:11.373Z,5.55
2023-04-07T04:49:01.299Z,5.00
2023-04-07T04:51:49.000Z,5.88
2023-04-07T04:54:37.694Z,4.95
2023-04-07T04:57:25.360Z,5.32
2023-04-07T05:00:12.056Z,5.93
2023-04-07T05:03:00.774Z,5.68
2023-04-07T05:05:48.728Z,6.63
2023-04-07T05:08:36.561Z,6.85
2023-04-07T05:14:12.164Z,4.93
2023-04-07T05:17:02.651Z,5.20
2023-04-07T05:19:49.186Z,5.20
2023-04-07T05:22:46.184Z,6.00
2023-04-07T05:25:33.668Z,5.40
2023-04-07T05:28:23.134Z,6.55
2023-04-07T05:31:11.373Z,6.13
2023-04-07T05:33:57.515Z,6.25
2023-04-07T05:36:47.676Z,6.13
2023-04-07T05:39:35.044Z,6.57
2023-04-07T05:42:23.454Z,4.93
2023-04-07T05:45:13.517Z,5.53
2023-04-07T05:48:03.748Z,5.78
2023-04-07T05:50:58.270Z,5.85
2023-04-07T05:53:44.758Z,5.43
2023-04-07T05:56:30.586Z,5.70
2023-04-07T05:59:17.101Z,8.20
2023-04-07T06:02:05.561Z,5.88
2023-04-07T06:04:51.854Z,6.28
2023-04-07T06:07:39.446Z,5.30
2023-04-07T06:10:25.731Z,5.70
2023-04-07T06:13:11.755Z,7.07
2023-04-07T06:15:58.064Z,6.05
2023-04-07T06:18:46.190Z,7.55
2023-04-07T06:21:32.294Z,7.18
2023-04-07T06:24:18.545Z,5.88
2023-04-07T06:27:04.548Z,5.38
2023-04-07T06:29:50.576Z,5.60
2023-04-07T06:32:36.815Z,9.93
2023-04-07T06:35:23.370Z,6.05
2023-04-07T06:38:11.549Z,5.95
2023-04-07T06:40:57.704Z,6.95
2023-04-07T06:43:49.613Z,5.80
2023-04-07T06:46:36.651Z,6.70
2023-04-07T06:52:08.832Z,5.47
2023-04-07T06:54:55.023Z,5.10
2023-04-07T06:57:41.382Z,6.90
2023-04-07T07:00:30.168Z,7.82
2023-04-07T07:03:16.752Z,6.63
2023-04-07T07:06:02.810Z,6.35
2023-04-07T07:08:48.784Z,6.43
2023-04-07T07:11:35.012Z,6.03
2023-04-07T07:14:20.779Z,8.18
2023-04-07T07:17:06.605Z,7.45
2023-04-07T07:19:52.622Z,7.43
2023-04-07T07:22:38.489Z,6.70
2023-04-07T07:25:26.825Z,6.75
2023-04-07T07:28:13.156Z,7.47
2023-04-07T07:30:59.000Z,5.72
2023-04-07T07:33:46.894Z,6.78
2023-04-07T07:36:33.271Z,7.03
2023-04-07T07:39:19.545Z,6.18
2023-04-07T07:42:05.721Z,6.75
2023-04-07T07:44:51.797Z,6.50
2023-04-07T07:47:38.058Z,5.78
2023-04-07T07:50:24.124Z,6.43
2023-04-07T07:53:10.359Z,7.95
2023-04-07T07:55:56.676Z,6.63
2023-04-07T07:58:42.822Z,6.00
2023-04-07T08:01:29.089Z,7.50
2023-04-07T08:04:15.612Z,5.72
2023-04-07T08:07:02.234Z,7.05
2023-04-07T08:09:49.632Z,8.20
2023-04-07T08:12:35.915Z,7.57
2023-04-07T08:15:22.082Z,6.32
2023-04-07T08:18:08.259Z,7.13
2023-04-07T08:20:54.399Z,8.13
2023-04-07T08:23:40.464Z,6.38
2023-04-07T08:26:26.650Z,6.97
2023-04-07T08:29:12.822Z,8.10
2023-04-07T08:31:58.650Z,6.82
2023-04-07T08:34:44.958Z,6.45
2023-04-07T08:37:31.763Z,7.07
2023-04-07T08:40:18.188Z,6.50
2023-04-07T08:43:09.569Z,6.05
2023-04-07T08:45:57.671Z,8.20
2023-04-07T08:48:44.904Z,7.13
2023-04-07T08:51:33.132Z,5.55
2023-04-07T08:54:19.351Z,7.18
2023-04-07T08:57:06.027Z,6.28
2023-04-07T08:59:52.355Z,5.75
2023-04-07T09:02:40.974Z,6.47
2023-04-07T09:05:27.740Z,6.22
2023-04-07T09:08:14.080Z,7.85
2023-04-07T09:11:00.030Z,7.47
2023-04-07T09:13:47.301Z,6.68
2023-04-07T09:16:33.766Z,7.80
2023-04-07T09:19:19.853Z,6.00
2023-04-07T09:22:05.930Z,5.57
2023-04-07T09:24:51.992Z,7.90
2023-04-07T09:27:38.005Z,7.20
2023-04-07T09:30:24.620Z,8.88
2023-04-07T09:33:16.544Z,6.55
2023-04-07T09:36:03.676Z,7.53
2023-04-07T09:38:49.883Z,6.78
2023-04-07T09:41:36.504Z,7.78
2023-04-07T09:44:23.334Z,6.22
2023-04-07T09:47:09.718Z,5.82
2023-04-07T09:49:57.088Z,6.82
2023-04-07T09:52:53.040Z,6.75
2023-04-07T09:55:41.801Z,6.30
2023-04-07T09:58:28.185Z,6.97
2023-04-07T10:01:17.027Z,5.93
2023-04-07T10:04:05.052Z,7.57
2023-04-07T10:06:56.980Z,7.38
2023-04-07T10:09:43.284Z,5.82
2023-04-07T10:12:31.191Z,6.60
2023-04-07T10:15:17.429Z,6.35
2023-04-07T10:18:07.382Z,6.85
2023-04-07T10:20:56.014Z,6.80
2023-04-07T10:23:59.965Z,6.32
2023-04-07T10:26:57.873Z,7.53
2023-04-07T10:29:49.072Z,6.15
2023-04-07T10:32:47.665Z,8.05
2023-04-07T10:36:06.010Z,6.97
2023-04-07T10:39:07.846Z,6.47
2023-04-07T10:41:54.154Z,6.85
2023-04-07T10:44:42.983Z,6.28
2023-04-07T10:47:29.457Z,6.18
2023-04-07T10:50:20.909Z,6.53
2023-04-07T10:53:12.438Z,6.10
2023-04-07T10:55:59.395Z,6.22
2023-04-07T10:58:45.620Z,7.70
2023-04-07T11:01:31.874Z,6.90
2023-04-07T11:04:17.981Z,7.38
2023-04-07T11:07:04.153Z,5.68
2023-04-07T11:09:50.468Z,6.78
2023-04-07T11:15:23.250Z,7.65
2023-04-07T11:18:10.506Z,6.88
2023-04-07T11:21:00.707Z,7.53
2023-04-07T11:23:47.659Z,6.47
2023-04-07T11:26:39.318Z,8.57
2023-04-07T11:29:33.323Z,6.85
2023-04-07T11:32:26.032Z,6.47
2023-04-07T11:35:12.486Z,8.98
2023-04-07T11:40:45.398Z,6.18
2023-04-07T11:43:31.570Z,6.90
2023-04-07T11:46:18.992Z,7.22
2023-04-07T11:49:14.388Z,5.88
2023-04-07T11:52:07.414Z,6.03
2023-04-07T11:54:54.011Z,8.30
2023-04-07T11:57:40.280Z,5.72
2023-04-07T12:00:26.375Z,6.72
2023-04-07T12:03:16.393Z,5.75
2023-04-07T12:06:04.226Z,6.05
2023-04-07T12:08:50.318Z,7.15
2023-04-07T12:11:37.265Z,7.70
2023-04-07T12:14:24.165Z,8.85
2023-04-07T12:17:21.648Z,6.80
2023-04-07T12:20:08.512Z,7.47
2023-04-07T12:22:54.385Z,6.65
2023-04-07T12:25:40.280Z,7.10
2023-04-07T12:28:26.533Z,6.63
2023-04-07T12:33:59.250Z,5.78
2023-04-07T12:36:45.083Z,7.20
2023-04-07T12:39:31.482Z,7.57
2023-04-07T12:42:17.718Z,6.05
2023-04-07T12:45:03.801Z,8.23
2023-04-07T12:47:50.056Z,6.15
2023-04-07T12:50:36.942Z,6.72
2023-04-07T12:53:23.162Z,7.05
2023-04-07T12:56:09.044Z,6.70
2023-04-07T12:58:55.274Z,7.20
2023-04-07T13:01:41.231Z,6.38
2023-04-07T13:07:16.883Z,6.35
2023-04-07T13:10:03.243Z,6.25
2023-04-07T13:12:49.350Z,6.18
2023-04-07T13:15:35.215Z,7.30
2023-04-07T13:18:21.856Z,7.43
2023-04-07T13:21:27.373Z,5.15
2023-04-07T13:24:14.551Z,6.80
2023-04-07T13:27:00.735Z,6.28
2023-04-07T13:29:47.107Z,5.57
2023-04-07T13:32:33.443Z,7.03
2023-04-07T13:35:19.298Z,6.70
2023-04-07T13:38:05.591Z,7.57
2023-04-07T13:40:51.734Z,6.68
2023-04-07T13:43:37.755Z,7.00
2023-04-07T13:46:28.800Z,7.65
2023-04-07T13:49:15.162Z,8.18
2023-04-07T13:52:01.179Z,5.13
2023-04-07T13:54:47.460Z,6.03
2023-04-07T14:00:20.175Z,5.93
2023-04-07T14:05:52.849Z,5.68
2023-04-07T14:08:38.816Z,6.70
2023-04-07T14:11:26.032Z,5.82
2023-04-07T14:14:11.916Z,6.38
2023-04-07T14:16:58.184Z,4.85
2023-04-07T14:19:44.862Z,6.22
2023-04-07T14:22:31.388Z,5.88
2023-04-07T14:28:03.639Z,5.72
2023-04-07T14:30:49.988Z,4.63
2023-04-07T14:33:35.948Z,6.15
2023-04-07T14:36:22.424Z,5.72
2023-04-07T14:39:08.929Z,5.30
2023-04-07T14:41:54.964Z,5.78
2023-04-07T14:44:41.521Z,5.50
2023-04-07T14:47:27.975Z,5.63
2023-04-07T14:50:14.536Z,5.75
2023-04-07T14:53:01.358Z,5.95
2023-04-07T14:55:47.971Z,7.35
2023-04-07T14:58:37.225Z,5.85
2023-04-07T15:01:23.476Z,7.22
2023-04-07T15:04:09.379Z,5.65
2023-04-07T15:06:56.221Z,5.38
2023-04-07T15:09:42.169Z,6.15
2023-04-07T15:12:29.775Z,6.07
2023-04-07T15:15:16.733Z,7.50
2023-04-07T15:18:04.103Z,5.50
2023-04-07T15:20:50.468Z,5.95
2023-04-07T15:23:38.347Z,5.22
2023-04-07T15:26:24.789Z,6.38
2023-04-07T15:29:11.199Z,4.95
2023-04-07T15:31:57.194Z,7.00
2023-04-07T15:34:43.653Z,6.57
2023-04-07T15:37:29.561Z,6.45
2023-04-07T15:40:15.569Z,6.35
2023-04-07T15:43:01.882Z,5.10
2023-04-07T15:45:48.041Z,6.53
2023-04-07T15:51:21.159Z,5.18
2023-04-07T15:54:07.462Z,6.25
2023-04-07T15:56:53.398Z,4.75
2023-04-07T15:59:39.683Z,5.28
2023-04-07T16:02:25.805Z,5.30
2023-04-07T16:05:12.564Z,5.55
2023-04-07T16:07:58.465Z,7.13
2023-04-07T16:10:45.322Z,5.43
2023-04-07T16:16:19.094Z,5.97
2023-04-07T16:19:04.918Z,5.90
2023-04-07T16:21:50.986Z,5.75
2023-04-07T16:24:36.736Z,5.80
2023-04-07T16:27:22.646Z,6.38
2023-04-07T16:30:09.170Z,5.00
2023-04-07T16:32:55.004Z,5.10
2023-04-07T16:35:41.008Z,6.75
2023-04-07T16:38:29.079Z,6.28
2023-04-07T16:41:14.868Z,5.32
2023-04-07T16:44:00.888Z,5.97
2023-04-07T16:46:47.027Z,5.68
2023-04-07T16:49:32.959Z,5.78
2023-04-07T16:52:20.654Z,6.47
2023-04-07T16:55:07.394Z,5.78
2023-04-07T16:57:53.344Z,5.25
2023-04-07T17:00:39.387Z,6.40
2023-04-07T17:03:25.464Z,4.63
2023-04-07T17:06:12.288Z,5.82
2023-04-07T17:08:58.281Z,5.75
2023-04-07T17:11:44.763Z,5.47
2023-04-07T17:14:30.876Z,5.43
2023-04-07T17:17:17.098Z,5.97
2023-04-07T17:20:04.710Z,5.28
2023-04-07T17:22:51.211Z,5.78
2023-04-07T17:28:23.370Z,5.68
2023-04-07T17:31:13.287Z,5.75
2023-04-07T17:33:59.411Z,5.82
2023-04-07T17:36:45.920Z,4.88
2023-04-07T17:42:18.292Z,7.53
2023-04-07T17:45:05.595Z,6.90
2023-04-07T17:47:52.394Z,5.43
2023-04-07T17:50:38.772Z,7.88
2023-04-07T17:53:24.861Z,6.07
2023-04-07T17:56:10.899Z,5.82
2023-04-07T17:58:57.086Z,6.05
2023-04-07T18:01:43.090Z,6.30
2023-04-07T18:04:30.436Z,7.10
2023-04-07T18:07:17.782Z,7.80
2023-04-07T18:10:04.152Z,7.38
2023-04-07T18:12:50.613Z,5.82
2023-04-07T18:15:36.870Z,6.57
2023-04-07T18:18:22.821Z,6.95
2023-04-07T18:21:09.074Z,5.63
2023-04-07T18:23:55.156Z,5.30
2023-04-07T18:26:41.446Z,6.53
2023-04-07T18:29:27.706Z,5.45
2023-04-07T18:32:13.796Z,5.10
2023-04-07T18:34:59.555Z,6.53
2023-04-07T18:37:45.668Z,7.00
2023-04-07T18:40:33.377Z,5.70
2023-04-07T18:43:19.445Z,7.25
2023-04-07T18:46:07.130Z,5.28
2023-04-07T18:48:54.268Z,6.30
2023-04-07T18:54:27.842Z,5.68
2023-04-07T18:57:13.949Z,5.85
2023-04-07T19:00:00.184Z,6.70
2023-04-07T19:02:46.355Z,7.63
2023-04-07T19:05:32.951Z,6.25
2023-04-07T19:08:19.216Z,9.85
2023-04-07T19:11:05.263Z,7.00
2023-04-07T19:13:53.277Z,7.35
2023-04-07T19:16:40.090Z,8.02
2023-04-07T19:19:26.479Z,6.53
2023-04-07T19:22:12.854Z,6.38
2023-04-07T19:24:59.097Z,7.82
2023-04-07T19:27:46.325Z,6.93
2023-04-07T19:30:32.510Z,6.45
2023-04-07T19:33:18.327Z,6.82
2023-04-07T19:36:04.798Z,6.85
2023-04-07T19:38:50.903Z,8.70
2023-04-07T19:41:36.910Z,9.02
2023-04-07T19:44:22.966Z,7.72
2023-04-07T19:47:09.203Z,7.75
2023-04-07T19:49:55.320Z,6.95
2023-04-07T19:52:43.538Z,8.38
2023-04-07T19:55:30.517Z,6.40
2023-04-07T19:58:18.815Z,8.52
2023-04-07T20:01:05.234Z,6.80
2023-04-07T20:03:51.548Z,8.93
2023-04-07T20:06:39.916Z,7.97
2023-04-07T20:09:28.036Z,7.97
2023-04-07T20:12:14.890Z,6.90
2023-04-07T20:17:47.922Z,8.43
2023-04-07T20:20:34.258Z,9.73
2023-04-07T20:23:22.183Z,7.70
2023-04-07T20:26:09.795Z,6.97
2023-04-07T20:28:56.267Z,9.82
2023-04-07T20:31:42.146Z,7.70
2023-04-07T20:34:28.236Z,7.22
2023-04-07T20:37:14.213Z,8.40
2023-04-07T20:40:00.054Z,7.18
2023-04-07T20:42:49.027Z,8.07
2023-04-07T20:45:35.287Z,10.43
2023-04-07T20:48:24.022Z,8.52
2023-04-07T20:51:11.065Z,9.05
2023-04-07T20:53:57.468Z,13.38
2023-04-07T20:56:44.740Z,12.32
2023-04-07T20:59:31.947Z,11.07
2023-04-07T21:02:18.319Z,10.55
2023-04-07T21:05:05.150Z,11.70
2023-04-07T21:07:51.792Z,11.50
2023-04-07T21:10:37.550Z,12.02
2023-04-07T21:13:25.920Z,11.32
2023-04-07T21:16:12.311Z,11.18
2023-04-07T21:18:58.146Z,10.60
2023-04-07T21:21:44.194Z,10.63
2023-04-07T21:24:30.374Z,11.80
2023-04-07T21:27:17.686Z,8.77
2023-04-07T21:30:05.966Z,10.43
2023-04-07T21:32:52.749Z,9.70
2023-04-07T21:35:38.812Z,11.85
2023-04-07T21:38:24.658Z,13.43
2023-04-07T21:41:10.814Z,10.20
2023-04-07T21:43:57.395Z,11.00
2023-04-07T21:46:44.012Z,9.88
2023-04-07T21:49:29.995Z,13.13
2023-04-07T21:52:17.672Z,10.48
2023-04-07T21:55:04.010Z,9.93
2023-04-07T21:57:50.706Z,7.72
2023-04-07T22:03:24.746Z,10.77
2023-04-07T22:06:10.855Z,11.85
2023-04-07T22:09:01.921Z,9.02
2023-04-07T22:11:48.534Z,16.92
2023-04-07T22:14:37.160Z,13.20
2023-04-07T22:17:23.273Z,12.82
2023-04-07T22:20:11.250Z,10.10
2023-04-07T22:22:57.559Z,10.63
2023-04-07T22:25:44.315Z,11.25
2023-04-07T22:28:30.317Z,8.82
2023-04-07T22:31:16.552Z,10.38
2023-04-07T22:34:02.711Z,9.25
2023-04-07T22:36:49.063Z,12.13
2023-04-07T22:39:35.054Z,9.18
2023-04-07T22:42:21.167Z,9.73
2023-04-07T22:45:07.769Z,8.82
2023-04-07T22:47:53.702Z,9.55
2023-04-07T22:50:40.155Z,7.65
2023-04-07T22:53:26.292Z,8.43
2023-04-07T22:56:12.695Z,7.68
2023-04-07T22:59:05.389Z,8.65
2023-04-07T23:01:52.266Z,7.70
2023-04-07T23:04:38.748Z,7.65
2023-04-07T23:07:25.122Z,8.20
2023-04-07T23:10:11.658Z,7.78
2023-04-07T23:12:58.116Z,9.80
2023-04-07T23:15:44.036Z,8.23
2023-04-07T23:18:31.453Z,11.00
2023-04-07T23:21:17.621Z,9.05
2023-04-07T23:24:03.706Z,9.82
2023-04-07T23:26:49.980Z,8.25
2023-04-07T23:29:36.273Z,9.80
2023-04-07T23:32:22.055Z,9.40
2023-04-07T23:35:08.660Z,9.88
2023-04-07T23:37:54.563Z,8.82
2023-04-07T23:40:40.904Z,9.55
2023-04-07T23:43:27.110Z,11.68
2023-04-07T23:46:13.253Z,8.32
2023-04-07T23:48:59.823Z,10.52
2023-04-07T23:51:46.236Z,10.73
2023-04-07T23:54:32.627Z,9.73
2023-04-07T23:57:18.615Z,9.93
